sensor_id;sensor_type;location;lat;lon;timestamp;pressure;altitude;pressure_sealevel;temperature;humidity
16580;BME280;8402;51.466;6.806;2022-07-23T00:00:49;101502.63;;;20.98;76.72
16580;BME280;8402;51.466;6.806;2022-07-23T00:03:17;101503.50;;;21.02;77.15
16580;BME280;8402;51.466;6.806;2022-07-23T00:05:44;101491.34;;;21.07;76.34
16580;BME280;8402;51.466;6.806;2022-07-23T00:08:12;101492.59;;;21.09;76.36
16580;BME280;8402;51.466;6.806;2022-07-23T00:10:41;101501.66;;;21.10;76.43
16580;BME280;8402;51.466;6.806;2022-07-23T00:13:09;101500.84;;;21.09;76.75
16580;BME280;8402;51.466;6.806;2022-07-23T00:15:38;101510.31;;;21.08;76.75
16580;BME280;8402;51.466;6.806;2022-07-23T00:18:07;101505.13;;;21.07;76.90
16580;BME280;8402;51.466;6.806;2022-07-23T00:20:35;101505.13;;;21.07;76.94
16580;BME280;8402;51.466;6.806;2022-07-23T00:23:03;101501.22;;;21.08;77.29
16580;BME280;8402;51.466;6.806;2022-07-23T00:25:31;101496.06;;;21.06;77.31
16580;BME280;8402;51.466;6.806;2022-07-23T00:28:02;101503.50;;;21.02;77.34
16580;BME280;8402;51.466;6.806;2022-07-23T00:30:31;101498.25;;;20.97;77.72
16580;BME280;8402;51.466;6.806;2022-07-23T00:33:01;101487.53;;;20.92;77.86
16580;BME280;8402;51.466;6.806;2022-07-23T00:35:32;101482.75;;;20.89;77.73
16580;BME280;8402;51.466;6.806;2022-07-23T00:38:02;101480.28;;;20.84;78.01
16580;BME280;8402;51.466;6.806;2022-07-23T00:40:31;101486.13;;;20.79;78.01
16580;BME280;8402;51.466;6.806;2022-07-23T00:42:59;101489.59;;;20.76;78.05
16580;BME280;8402;51.466;6.806;2022-07-23T00:45:27;101489.53;;;20.72;78.30
16580;BME280;8402;51.466;6.806;2022-07-23T00:47:56;101492.22;;;20.69;78.57
16580;BME280;8402;51.466;6.806;2022-07-23T00:50:23;101491.00;;;20.66;78.59
16580;BME280;8402;51.466;6.806;2022-07-23T00:52:53;101504.69;;;20.63;78.92
16580;BME280;8402;51.466;6.806;2022-07-23T00:55:21;101509.78;;;20.60;79.23
16580;BME280;8402;51.466;6.806;2022-07-23T00:57:50;101497.16;;;20.59;78.84
16580;BME280;8402;51.466;6.806;2022-07-23T01:00:18;101498.66;;;20.57;79.27
16580;BME280;8402;51.466;6.806;2022-07-23T01:02:46;101501.75;;;20.52;79.01
16580;BME280;8402;51.466;6.806;2022-07-23T01:05:15;101512.69;;;20.48;79.01
16580;BME280;8402;51.466;6.806;2022-07-23T01:07:44;101511.00;;;20.44;79.19
16580;BME280;8402;51.466;6.806;2022-07-23T01:10:15;101508.59;;;20.42;79.30
16580;BME280;8402;51.466;6.806;2022-07-23T01:13:04;101499.81;;;20.37;79.45
16580;BME280;8402;51.466;6.806;2022-07-23T01:15:33;101502.13;;;20.34;79.38
16580;BME280;8402;51.466;6.806;2022-07-23T01:18:02;101506.84;;;20.34;79.43
16580;BME280;8402;51.466;6.806;2022-07-23T01:20:30;101495.81;;;20.34;79.70
16580;BME280;8402;51.466;6.806;2022-07-23T01:23:00;101491.91;;;20.35;79.62
16580;BME280;8402;51.466;6.806;2022-07-23T01:25:28;101499.03;;;20.36;80.04
16580;BME280;8402;51.466;6.806;2022-07-23T01:27:56;101504.19;;;20.38;79.93
16580;BME280;8402;51.466;6.806;2022-07-23T01:30:24;101503.81;;;20.39;79.93
16580;BME280;8402;51.466;6.806;2022-07-23T01:32:52;101499.88;;;20.40;79.89
16580;BME280;8402;51.466;6.806;2022-07-23T01:35:20;101501.47;;;20.41;80.04
16580;BME280;8402;51.466;6.806;2022-07-23T01:37:48;101499.19;;;20.43;80.28
16580;BME280;8402;51.466;6.806;2022-07-23T01:40:17;101499.19;;;20.43;80.36
16580;BME280;8402;51.466;6.806;2022-07-23T01:42:47;101495.97;;;20.41;80.29
16580;BME280;8402;51.466;6.806;2022-07-23T01:45:16;101491.63;;;20.40;80.37
16580;BME280;8402;51.466;6.806;2022-07-23T01:47:44;101495.16;;;20.41;80.32
16580;BME280;8402;51.466;6.806;2022-07-23T01:50:12;101499.88;;;20.40;80.54
16580;BME280;8402;51.466;6.806;2022-07-23T01:52:40;101493.56;;;20.40;80.36
16580;BME280;8402;51.466;6.806;2022-07-23T01:55:08;101493.53;;;20.36;80.14
16580;BME280;8402;51.466;6.806;2022-07-23T01:57:46;101488.72;;;20.33;80.40
16580;BME280;8402;51.466;6.806;2022-07-23T02:00:14;101490.25;;;20.30;80.23
16580;BME280;8402;51.466;6.806;2022-07-23T02:02:42;101491.75;;;20.28;80.52
16580;BME280;8402;51.466;6.806;2022-07-23T02:05:10;101491.69;;;20.24;80.52
16580;BME280;8402;51.466;6.806;2022-07-23T02:07:38;101484.06;;;20.18;80.49
16580;BME280;8402;51.466;6.806;2022-07-23T02:10:07;101482.84;;;20.15;80.47
16580;BME280;8402;51.466;6.806;2022-07-23T02:12:35;101487.09;;;20.13;80.49
16580;BME280;8402;51.466;6.806;2022-07-23T02:15:06;101483.47;;;20.09;80.34
16580;BME280;8402;51.466;6.806;2022-07-23T02:17:36;101481.91;;;20.08;80.42
16580;BME280;8402;51.466;6.806;2022-07-23T02:20:05;101481.00;;;20.03;80.42
16580;BME280;8402;51.466;6.806;2022-07-23T02:22:33;101480.13;;;19.99;80.52
16580;BME280;8402;51.466;6.806;2022-07-23T02:25:01;101484.75;;;19.95;80.28
16580;BME280;8402;51.466;6.806;2022-07-23T02:27:30;101491.78;;;19.93;80.57
16580;BME280;8402;51.466;6.806;2022-07-23T02:29:57;101490.13;;;19.88;80.50
16580;BME280;8402;51.466;6.806;2022-07-23T02:32:28;101483.72;;;19.84;80.62
16580;BME280;8402;51.466;6.806;2022-07-23T02:34:56;101477.78;;;19.82;80.88
16580;BME280;8402;51.466;6.806;2022-07-23T02:37:24;101479.63;;;19.78;80.88
16580;BME280;8402;51.466;6.806;2022-07-23T02:39:52;101477.19;;;19.73;80.84
16580;BME280;8402;51.466;6.806;2022-07-23T02:42:20;101476.72;;;19.71;81.25
16580;BME280;8402;51.466;6.806;2022-07-23T02:44:50;101472.38;;;19.70;81.50
16580;BME280;8402;51.466;6.806;2022-07-23T02:47:18;101480.19;;;19.68;81.24
16580;BME280;8402;51.466;6.806;2022-07-23T02:49:47;101480.56;;;19.66;81.38
16580;BME280;8402;51.466;6.806;2022-07-23T02:52:15;101469.44;;;19.63;81.62
16580;BME280;8402;51.466;6.806;2022-07-23T02:54:43;101477.72;;;19.63;81.68
16580;BME280;8402;51.466;6.806;2022-07-23T02:57:11;101479.31;;;19.64;81.92
16580;BME280;8402;51.466;6.806;2022-07-23T02:59:39;101482.53;;;19.66;82.08
16580;BME280;8402;51.466;6.806;2022-07-23T03:02:07;101488.88;;;19.70;81.66
16580;BME280;8402;51.466;6.806;2022-07-23T03:04:35;101479.03;;;19.69;81.51
16580;BME280;8402;51.466;6.806;2022-07-23T03:07:04;101470.78;;;19.69;81.36
16580;BME280;8402;51.466;6.806;2022-07-23T03:09:32;101474.25;;;19.66;80.89
16580;BME280;8402;51.466;6.806;2022-07-23T03:12:00;101477.72;;;19.63;81.21
16580;BME280;8402;51.466;6.806;2022-07-23T03:14:28;101476.91;;;19.62;81.26
16580;BME280;8402;51.466;6.806;2022-07-23T03:16:56;101474.53;;;19.61;81.12
16580;BME280;8402;51.466;6.806;2022-07-23T03:19:26;101474.88;;;19.59;80.80
16580;BME280;8402;51.466;6.806;2022-07-23T03:21:54;101480.75;;;19.58;80.74
16580;BME280;8402;51.466;6.806;2022-07-23T03:24:23;101471.56;;;19.53;80.42
16580;BME280;8402;51.466;6.806;2022-07-23T03:27:11;101470.25;;;19.47;80.55
16580;BME280;8402;51.466;6.806;2022-07-23T03:29:39;101473.25;;;19.42;80.75
16580;BME280;8402;51.466;6.806;2022-07-23T03:32:07;101474.72;;;19.36;80.65
16580;BME280;8402;51.466;6.806;2022-07-23T03:34:36;101483.22;;;19.31;80.94
16580;BME280;8402;51.466;6.806;2022-07-23T03:37:04;101479.13;;;19.25;80.89
16580;BME280;8402;51.466;6.806;2022-07-23T03:39:34;101478.22;;;19.21;81.18
16580;BME280;8402;51.466;6.806;2022-07-23T03:42:02;101473.44;;;19.18;80.75
16580;BME280;8402;51.466;6.806;2022-07-23T03:44:30;101487.09;;;19.14;80.66
16580;BME280;8402;51.466;6.806;2022-07-23T03:46:58;101486.59;;;19.09;80.65
16580;BME280;8402;51.466;6.806;2022-07-23T03:49:26;101489.59;;;19.04;81.04
16580;BME280;8402;51.466;6.806;2022-07-23T03:51:54;101481.59;;;18.98;81.07
16580;BME280;8402;51.466;6.806;2022-07-23T03:54:22;101489.75;;;18.95;80.89
16580;BME280;8402;51.466;6.806;2022-07-23T03:56:51;101487.69;;;18.92;80.61
16580;BME280;8402;51.466;6.806;2022-07-23T03:59:19;101487.19;;;18.86;80.61
16580;BME280;8402;51.466;6.806;2022-07-23T04:01:50;101490.63;;;18.83;80.83
16580;BME280;8402;51.466;6.806;2022-07-23T04:04:18;101487.78;;;18.80;80.90
16580;BME280;8402;51.466;6.806;2022-07-23T04:06:45;101492.03;;;18.77;81.28
16580;BME280;8402;51.466;6.806;2022-07-23T04:09:13;101488.84;;;18.75;81.29
16580;BME280;8402;51.466;6.806;2022-07-23T04:11:41;101488.38;;;18.73;81.20
16580;BME280;8402;51.466;6.806;2022-07-23T04:14:11;101495.03;;;18.72;81.01
16580;BME280;8402;51.466;6.806;2022-07-23T04:16:39;101506.72;;;18.69;81.33
16580;BME280;8402;51.466;6.806;2022-07-23T04:19:07;101512.22;;;18.69;81.12
16580;BME280;8402;51.466;6.806;2022-07-23T04:21:35;101504.78;;;18.69;81.38
16580;BME280;8402;51.466;6.806;2022-07-23T04:24:03;101505.56;;;18.70;81.03
16580;BME280;8402;51.466;6.806;2022-07-23T04:26:31;101504.09;;;18.73;80.88
16580;BME280;8402;51.466;6.806;2022-07-23T04:28:59;101513.94;;;18.74;80.81
16580;BME280;8402;51.466;6.806;2022-07-23T04:31:29;101506.91;;;18.76;81.05
16580;BME280;8402;51.466;6.806;2022-07-23T04:34:03;101510.09;;;18.78;81.25
16580;BME280;8402;51.466;6.806;2022-07-23T04:36:31;101512.06;;;18.78;81.17
16580;BME280;8402;51.466;6.806;2022-07-23T04:38:58;101514.47;;;18.79;81.26
16580;BME280;8402;51.466;6.806;2022-07-23T04:41:27;101514.91;;;18.81;81.26
16580;BME280;8402;51.466;6.806;2022-07-23T04:43:55;101505.53;;;18.82;81.29
16580;BME280;8402;51.466;6.806;2022-07-23T04:46:23;101508.72;;;18.84;80.84
16580;BME280;8402;51.466;6.806;2022-07-23T04:48:53;101522.94;;;18.86;81.22
16580;BME280;8402;51.466;6.806;2022-07-23T04:51:21;101524.53;;;18.87;81.03
16580;BME280;8402;51.466;6.806;2022-07-23T04:53:49;101516.72;;;18.89;80.83
16580;BME280;8402;51.466;6.806;2022-07-23T04:56:17;101522.22;;;18.89;80.96
16580;BME280;8402;51.466;6.806;2022-07-23T04:58:45;101520.50;;;18.85;81.06
16580;BME280;8402;51.466;6.806;2022-07-23T05:01:13;101529.09;;;18.83;81.06
16580;BME280;8402;51.466;6.806;2022-07-23T05:03:41;101533.47;;;18.84;81.00
16580;BME280;8402;51.466;6.806;2022-07-23T05:06:10;101526.34;;;18.83;81.17
16580;BME280;8402;51.466;6.806;2022-07-23T05:08:38;101529.91;;;18.84;81.41
16580;BME280;8402;51.466;6.806;2022-07-23T05:11:06;101529.09;;;18.83;81.22
16580;BME280;8402;51.466;6.806;2022-07-23T05:13:34;101541.25;;;18.82;81.10
16580;BME280;8402;51.466;6.806;2022-07-23T05:16:02;101546.75;;;18.82;81.59
16580;BME280;8402;51.466;6.806;2022-07-23T05:18:31;101543.22;;;18.82;81.59
16580;BME280;8402;51.466;6.806;2022-07-23T05:20:59;101544.00;;;18.82;81.60
16580;BME280;8402;51.466;6.806;2022-07-23T05:23:28;101536.22;;;18.84;81.43
16580;BME280;8402;51.466;6.806;2022-07-23T05:25:56;101547.19;;;18.84;81.69
16580;BME280;8402;51.466;6.806;2022-07-23T05:28:24;101547.13;;;18.81;81.84
16580;BME280;8402;51.466;6.806;2022-07-23T05:30:52;101547.81;;;18.78;81.68
16580;BME280;8402;51.466;6.806;2022-07-23T05:33:22;101558.00;;;18.77;82.05
16580;BME280;8402;51.466;6.806;2022-07-23T05:35:50;101558.00;;;18.77;82.24
16580;BME280;8402;51.466;6.806;2022-07-23T05:38:18;101567.53;;;18.80;82.36
16580;BME280;8402;51.466;6.806;2022-07-23T05:40:47;101567.53;;;18.80;82.44
16580;BME280;8402;51.466;6.806;2022-07-23T05:43:15;101571.50;;;18.82;82.44
16580;BME280;8402;51.466;6.806;2022-07-23T05:45:43;101561.31;;;18.83;82.87
16580;BME280;8402;51.466;6.806;2022-07-23T05:48:11;101563.69;;;18.84;82.75
16580;BME280;8402;51.466;6.806;2022-07-23T05:50:39;101563.34;;;18.86;82.77
16580;BME280;8402;51.466;6.806;2022-07-23T05:53:07;101562.09;;;18.83;82.52
16580;BME280;8402;51.466;6.806;2022-07-23T05:55:35;101559.78;;;18.85;82.57
16580;BME280;8402;51.466;6.806;2022-07-23T05:58:05;101560.94;;;18.84;83.18
16580;BME280;8402;51.466;6.806;2022-07-23T06:00:32;101561.41;;;18.86;83.25
16580;BME280;8402;51.466;6.806;2022-07-23T06:03:00;101567.56;;;18.95;83.06
16580;BME280;8402;51.466;6.806;2022-07-23T06:05:29;101579.13;;;19.01;82.94
16580;BME280;8402;51.466;6.806;2022-07-23T06:07:56;101565.88;;;19.07;82.66
16580;BME280;8402;51.466;6.806;2022-07-23T06:10:25;101564.03;;;19.11;82.59
16580;BME280;8402;51.466;6.806;2022-07-23T06:12:52;101573.88;;;19.12;82.94
16580;BME280;8402;51.466;6.806;2022-07-23T06:15:29;101579.84;;;19.14;83.03
16580;BME280;8402;51.466;6.806;2022-07-23T06:17:57;101575.69;;;19.20;83.32
16580;BME280;8402;51.466;6.806;2022-07-23T06:20:25;101572.75;;;19.29;83.03
16580;BME280;8402;51.466;6.806;2022-07-23T06:22:53;101585.56;;;19.37;82.69
16580;BME280;8402;51.466;6.806;2022-07-23T06:25:21;101582.47;;;19.38;82.97
16580;BME280;8402;51.466;6.806;2022-07-23T06:27:49;101592.06;;;19.44;82.94
16580;BME280;8402;51.466;6.806;2022-07-23T06:30:17;101586.28;;;19.49;82.82
16580;BME280;8402;51.466;6.806;2022-07-23T06:32:50;101588.41;;;19.56;83.29
16580;BME280;8402;51.466;6.806;2022-07-23T06:35:18;101588.63;;;19.63;83.31
16580;BME280;8402;51.466;6.806;2022-07-23T06:37:46;101587.31;;;19.73;82.79
16580;BME280;8402;51.466;6.806;2022-07-23T06:40:14;101590.13;;;19.92;82.57
16580;BME280;8402;51.466;6.806;2022-07-23T06:42:42;101594.56;;;20.13;82.66
16580;BME280;8402;51.466;6.806;2022-07-23T06:45:10;101596.19;;;20.33;82.44
16580;BME280;8402;51.466;6.806;2022-07-23T06:47:38;101590.03;;;20.55;81.98
16580;BME280;8402;51.466;6.806;2022-07-23T06:50:09;101594.69;;;20.71;81.56
16580;BME280;8402;51.466;6.806;2022-07-23T06:52:37;101589.91;;;20.87;80.95
16580;BME280;8402;51.466;6.806;2022-07-23T06:55:08;101589.44;;;21.04;80.70
16580;BME280;8402;51.466;6.806;2022-07-23T06:57:36;101584.34;;;21.26;80.28
16580;BME280;8402;51.466;6.806;2022-07-23T07:00:06;101598.00;;;21.38;78.63
16580;BME280;8402;51.466;6.806;2022-07-23T07:02:34;101597.94;;;21.57;78.55
16580;BME280;8402;51.466;6.806;2022-07-23T07:05:02;101590.34;;;21.74;78.30
16580;BME280;8402;51.466;6.806;2022-07-23T07:07:33;101598.16;;;21.94;78.21
16580;BME280;8402;51.466;6.806;2022-07-23T07:10:01;101592.22;;;22.15;77.28
16580;BME280;8402;51.466;6.806;2022-07-23T07:12:30;101594.91;;;22.38;77.14
16580;BME280;8402;51.466;6.806;2022-07-23T07:14:59;101594.41;;;22.59;77.11
16580;BME280;8402;51.466;6.806;2022-07-23T07:17:27;101579.25;;;22.79;76.24
16580;BME280;8402;51.466;6.806;2022-07-23T07:19:55;101594.94;;;23.02;74.79
16580;BME280;8402;51.466;6.806;2022-07-23T07:22:23;101591.16;;;23.17;73.60
16580;BME280;8402;51.466;6.806;2022-07-23T07:24:52;101598.41;;;23.32;73.00
16580;BME280;8402;51.466;6.806;2022-07-23T07:27:20;101602.47;;;23.42;71.65
16580;BME280;8402;51.466;6.806;2022-07-23T07:29:48;101603.75;;;23.52;70.59
16580;BME280;8402;51.466;6.806;2022-07-23T07:32:16;101600.31;;;23.62;69.85
16580;BME280;8402;51.466;6.806;2022-07-23T07:35:05;101607.56;;;23.77;69.67
16580;BME280;8402;51.466;6.806;2022-07-23T07:37:33;101612.47;;;23.95;68.69
16580;BME280;8402;51.466;6.806;2022-07-23T07:40:03;101610.22;;;24.14;68.35
16580;BME280;8402;51.466;6.806;2022-07-23T07:42:31;101612.72;;;24.30;67.98
16580;BME280;8402;51.466;6.806;2022-07-23T07:44:59;101610.81;;;24.41;66.51
16580;BME280;8402;51.466;6.806;2022-07-23T07:47:27;101614.81;;;24.48;64.85
16580;BME280;8402;51.466;6.806;2022-07-23T07:49:55;101618.03;;;24.57;63.28
16580;BME280;8402;51.466;6.806;2022-07-23T07:52:23;101614.50;;;24.63;63.27
16580;BME280;8402;51.466;6.806;2022-07-23T07:54:51;101609.00;;;24.74;62.53
16580;BME280;8402;51.466;6.806;2022-07-23T07:57:20;101615.41;;;24.89;63.39
16580;BME280;8402;51.466;6.806;2022-07-23T07:59:48;101620.25;;;25.13;63.09
16580;BME280;8402;51.466;6.806;2022-07-23T08:02:22;101624.31;;;25.37;63.20
16580;BME280;8402;51.466;6.806;2022-07-23T08:04:50;101634.63;;;25.47;60.45
16580;BME280;8402;51.466;6.806;2022-07-23T08:07:18;101628.28;;;25.43;61.01
16580;BME280;8402;51.466;6.806;2022-07-23T08:09:46;101630.66;;;25.56;59.51
16580;BME280;8402;51.466;6.806;2022-07-23T08:12:14;101630.69;;;25.59;59.07
16580;BME280;8402;51.466;6.806;2022-07-23T08:14:44;101629.09;;;25.62;58.58
16580;BME280;8402;51.466;6.806;2022-07-23T08:17:12;101622.78;;;25.72;58.94
16580;BME280;8402;51.466;6.806;2022-07-23T08:19:41;101628.72;;;25.85;58.98
16580;BME280;8402;51.466;6.806;2022-07-23T08:22:09;101637.47;;;25.90;58.25
16580;BME280;8402;51.466;6.806;2022-07-23T08:24:37;101632.69;;;26.12;58.51
16580;BME280;8402;51.466;6.806;2022-07-23T08:27:05;101632.69;;;26.23;57.87
16580;BME280;8402;51.466;6.806;2022-07-23T08:29:32;101636.22;;;26.34;57.56
16580;BME280;8402;51.466;6.806;2022-07-23T08:32:02;101628.66;;;26.52;56.58
16580;BME280;8402;51.466;6.806;2022-07-23T08:34:50;101640.13;;;26.69;56.47
16580;BME280;8402;51.466;6.806;2022-07-23T08:37:18;101636.91;;;26.77;56.09
16580;BME280;8402;51.466;6.806;2022-07-23T08:39:46;101635.75;;;26.75;54.21
16580;BME280;8402;51.466;6.806;2022-07-23T08:42:14;101639.25;;;26.86;54.75
16580;BME280;8402;51.466;6.806;2022-07-23T08:44:44;101641.63;;;26.95;52.93
16580;BME280;8402;51.466;6.806;2022-07-23T08:47:14;101642.41;;;27.02;53.54
16580;BME280;8402;51.466;6.806;2022-07-23T08:49:43;101639.94;;;27.19;53.40
16580;BME280;8402;51.466;6.806;2022-07-23T08:52:13;101636.72;;;27.27;52.71
16580;BME280;8402;51.466;6.806;2022-07-23T08:54:43;101640.59;;;27.44;52.71
16580;BME280;8402;51.466;6.806;2022-07-23T08:57:11;101635.81;;;27.45;51.65
16580;BME280;8402;51.466;6.806;2022-07-23T08:59:39;101622.13;;;27.64;52.81
16580;BME280;8402;51.466;6.806;2022-07-23T09:02:07;101629.97;;;27.84;51.48
16580;BME280;8402;51.466;6.806;2022-07-23T09:04:36;101634.72;;;27.87;51.00
16580;BME280;8402;51.466;6.806;2022-07-23T09:07:05;101639.47;;;27.93;51.68
16580;BME280;8402;51.466;6.806;2022-07-23T09:09:33;101639.78;;;27.99;50.82
16580;BME280;8402;51.466;6.806;2022-07-23T09:12:03;101641.22;;;28.14;50.17
16580;BME280;8402;51.466;6.806;2022-07-23T09:14:39;101642.69;;;28.30;48.40
16580;BME280;8402;51.466;6.806;2022-07-23T09:17:10;101639.31;;;28.49;49.17
16580;BME280;8402;51.466;6.806;2022-07-23T09:19:41;101639.75;;;28.47;47.35
16580;BME280;8402;51.466;6.806;2022-07-23T09:22:18;101638.84;;;28.58;47.28
16580;BME280;8402;51.466;6.806;2022-07-23T09:25:05;101636.53;;;28.83;48.13
16580;BME280;8402;51.466;6.806;2022-07-23T09:27:49;101638.84;;;28.92;46.10
16580;BME280;8402;51.466;6.806;2022-07-23T09:30:22;101633.53;;;29.01;47.43
16580;BME280;8402;51.466;6.806;2022-07-23T09:33:05;101634.38;;;28.98;47.56
16580;BME280;8402;51.466;6.806;2022-07-23T09:35:45;101636.78;;;28.96;45.32
16580;BME280;8402;51.466;6.806;2022-07-23T09:38:14;101643.50;;;29.02;46.48
16580;BME280;8402;51.466;6.806;2022-07-23T09:40:45;101632.31;;;29.02;45.91
16580;BME280;8402;51.466;6.806;2022-07-23T09:43:25;101630.31;;;29.02;45.77
16580;BME280;8402;51.466;6.806;2022-07-23T09:46:21;101646.94;;;29.13;45.22
16580;BME280;8402;51.466;6.806;2022-07-23T09:48:51;101635.56;;;29.27;46.25
16580;BME280;8402;51.466;6.806;2022-07-23T09:51:21;101633.72;;;29.44;45.93
16580;BME280;8402;51.466;6.806;2022-07-23T09:53:59;101639.25;;;29.48;45.44
16580;BME280;8402;51.466;6.806;2022-07-23T09:56:28;101641.59;;;29.53;45.29
16580;BME280;8402;51.466;6.806;2022-07-23T09:58:56;101637.00;;;29.66;44.01
16580;BME280;8402;51.466;6.806;2022-07-23T10:01:31;101636.88;;;29.73;45.21
16580;BME280;8402;51.466;6.806;2022-07-23T10:04:01;101641.84;;;29.85;44.15
16580;BME280;8402;51.466;6.806;2022-07-23T10:06:31;101629.22;;;30.01;43.67
16580;BME280;8402;51.466;6.806;2022-07-23T10:08:59;101634.16;;;30.17;44.52
16580;BME280;8402;51.466;6.806;2022-07-23T10:11:28;101632.31;;;30.30;43.92
16580;BME280;8402;51.466;6.806;2022-07-23T10:13:58;101641.38;;;30.37;44.27
16580;BME280;8402;51.466;6.806;2022-07-23T10:16:28;101631.09;;;30.31;41.41
16580;BME280;8402;51.466;6.806;2022-07-23T10:18:57;101630.66;;;30.32;41.48
16580;BME280;8402;51.466;6.806;2022-07-23T10:21:42;101630.53;;;30.39;41.67
16580;BME280;8402;51.466;6.806;2022-07-23T10:24:21;101633.78;;;30.58;41.12
16580;BME280;8402;51.466;6.806;2022-07-23T10:27:04;101632.59;;;30.55;40.88
16580;BME280;8402;51.466;6.806;2022-07-23T10:29:42;101627.78;;;30.56;41.26
16580;BME280;8402;51.466;6.806;2022-07-23T10:32:26;101624.50;;;30.61;41.48
16580;BME280;8402;51.466;6.806;2022-07-23T10:35:03;101626.38;;;30.87;41.16
16580;BME280;8402;51.466;6.806;2022-07-23T10:37:39;101626.16;;;30.98;41.71
16580;BME280;8402;51.466;6.806;2022-07-23T10:40:09;101630.09;;;31.01;40.58
16580;BME280;8402;51.466;6.806;2022-07-23T10:42:38;101630.78;;;30.88;39.82
16580;BME280;8402;51.466;6.806;2022-07-23T10:45:23;101618.38;;;30.86;39.76
16580;BME280;8402;51.466;6.806;2022-07-23T10:47:51;101624.53;;;31.17;40.58
16580;BME280;8402;51.466;6.806;2022-07-23T10:50:23;101613.03;;;30.75;39.76
16580;BME280;8402;51.466;6.806;2022-07-23T10:53:15;101626.69;;;30.73;39.52
16580;BME280;8402;51.466;6.806;2022-07-23T10:55:51;101620.31;;;31.09;40.51
16580;BME280;8402;51.466;6.806;2022-07-23T10:58:46;101626.31;;;31.27;40.48
16580;BME280;8402;51.466;6.806;2022-07-23T11:01:34;101625.47;;;31.30;39.76
16580;BME280;8402;51.466;6.806;2022-07-23T11:04:04;101622.84;;;31.39;38.53
16580;BME280;8402;51.466;6.806;2022-07-23T11:07:07;101616.44;;;31.39;38.39
16580;BME280;8402;51.466;6.806;2022-07-23T11:09:43;101619.69;;;31.37;37.01
16580;BME280;8402;51.466;6.806;2022-07-23T11:12:34;101623.53;;;31.43;38.54
16580;BME280;8402;51.466;6.806;2022-07-23T11:15:07;101614.97;;;31.67;39.44
16580;BME280;8402;51.466;6.806;2022-07-23T11:17:36;101622.66;;;31.79;38.84
16580;BME280;8402;51.466;6.806;2022-07-23T11:20:19;101618.38;;;31.58;38.08
16580;BME280;8402;51.466;6.806;2022-07-23T11:22:54;101616.34;;;31.75;39.06
16580;BME280;8402;51.466;6.806;2022-07-23T11:25:32;101629.94;;;31.76;36.27
16580;BME280;8402;51.466;6.806;2022-07-23T11:28:13;101624.25;;;31.96;37.95
16580;BME280;8402;51.466;6.806;2022-07-23T11:30:42;101611.13;;;32.22;38.50
16580;BME280;8402;51.466;6.806;2022-07-23T11:33:21;101626.13;;;32.32;37.02
16580;BME280;8402;51.466;6.806;2022-07-23T11:36:00;101623.47;;;32.41;36.77
16580;BME280;8402;51.466;6.806;2022-07-23T11:38:31;101611.81;;;32.55;37.77
16580;BME280;8402;51.466;6.806;2022-07-23T11:41:00;101609.47;;;32.54;36.77
16580;BME280;8402;51.466;6.806;2022-07-23T11:43:29;101614.28;;;32.53;37.58
16580;BME280;8402;51.466;6.806;2022-07-23T11:45:58;101615.84;;;32.54;37.54
16580;BME280;8402;51.466;6.806;2022-07-23T11:48:28;101619.50;;;32.68;37.14
16580;BME280;8402;51.466;6.806;2022-07-23T11:50:59;101616.56;;;32.58;36.68
16580;BME280;8402;51.466;6.806;2022-07-23T11:53:29;101618.28;;;32.81;37.35
16580;BME280;8402;51.466;6.806;2022-07-23T11:56:05;101616.53;;;32.88;35.40
16580;BME280;8402;51.466;6.806;2022-07-23T11:58:33;101621.09;;;32.81;35.46
16580;BME280;8402;51.466;6.806;2022-07-23T12:01:02;101625.38;;;32.86;35.97
16580;BME280;8402;51.466;6.806;2022-07-23T12:03:30;101619.22;;;32.49;33.15
16580;BME280;8402;51.466;6.806;2022-07-23T12:05:59;101603.50;;;32.52;35.65
16580;BME280;8402;51.466;6.806;2022-07-23T12:08:28;101599.50;;;32.66;35.56
16580;BME280;8402;51.466;6.806;2022-07-23T12:10:56;101607.47;;;32.67;35.19
16580;BME280;8402;51.466;6.806;2022-07-23T12:13:25;101610.53;;;32.73;36.18
16580;BME280;8402;51.466;6.806;2022-07-23T12:15:56;101605.56;;;32.77;35.71
16580;BME280;8402;51.466;6.806;2022-07-23T12:18:26;101606.59;;;32.83;35.56
16580;BME280;8402;51.466;6.806;2022-07-23T12:20:56;101619.75;;;32.86;34.03
16580;BME280;8402;51.466;6.806;2022-07-23T12:23:27;101601.25;;;32.89;34.26
16580;BME280;8402;51.466;6.806;2022-07-23T12:25:55;101606.56;;;32.70;34.58
16580;BME280;8402;51.466;6.806;2022-07-23T12:28:31;101604.00;;;32.76;35.84
16580;BME280;8402;51.466;6.806;2022-07-23T12:31:00;101601.91;;;32.93;34.99
16580;BME280;8402;51.466;6.806;2022-07-23T12:33:30;101609.34;;;33.12;35.38
16580;BME280;8402;51.466;6.806;2022-07-23T12:36:01;101604.19;;;33.23;34.75
16580;BME280;8402;51.466;6.806;2022-07-23T12:38:37;101600.22;;;33.21;33.71
16580;BME280;8402;51.466;6.806;2022-07-23T12:41:05;101608.78;;;33.30;34.83
16580;BME280;8402;51.466;6.806;2022-07-23T12:43:37;101600.69;;;33.32;33.06
16580;BME280;8402;51.466;6.806;2022-07-23T12:46:06;101604.53;;;33.38;33.56
16580;BME280;8402;51.466;6.806;2022-07-23T12:48:36;101605.09;;;33.46;33.96
16580;BME280;8402;51.466;6.806;2022-07-23T12:51:05;101618.53;;;33.63;34.33
16580;BME280;8402;51.466;6.806;2022-07-23T12:53:37;101615.72;;;33.63;32.31
16580;BME280;8402;51.466;6.806;2022-07-23T12:56:08;101616.88;;;33.53;33.16
16580;BME280;8402;51.466;6.806;2022-07-23T12:58:47;101613.84;;;33.48;31.23
16580;BME280;8402;51.466;6.806;2022-07-23T13:01:27;101618.34;;;33.58;33.49
16580;BME280;8402;51.466;6.806;2022-07-23T13:04:00;101616.19;;;33.75;32.27
16580;BME280;8402;51.466;6.806;2022-07-23T13:06:39;101621.88;;;33.84;33.57
16580;BME280;8402;51.466;6.806;2022-07-23T13:09:08;101614.69;;;33.83;32.91
16580;BME280;8402;51.466;6.806;2022-07-23T13:11:37;101624.25;;;33.98;32.55
16580;BME280;8402;51.466;6.806;2022-07-23T13:14:07;101621.50;;;34.07;32.32
16580;BME280;8402;51.466;6.806;2022-07-23T13:16:35;101627.50;;;33.97;32.12